IE-0003 weather

CLOSED Mallow International Airport
Mallow, County Cork, Ireland

Public forecast

Using degrees Celsius for public forecast. Weather courtesy of forecast.io.

Closest aviation weather report (METAR) to Mallow International Airport

Closest report is Cork Airport, 18.9 nm (35.0 km) SSE. Retrieved 2019/12/08 02:30 UTC (13 minutes ago):

EICK 080230Z 26018KT 9999 FEW012 SCT038 08/04 Q1000 NOSIG

Closest aviation forecast (TAF) to Mallow International Airport

Closest forecast is Cork Airport, 18.9 nm (35.0 km) SSE. Retrieved 2019-12-08 00:11 UTC (3 hours ago):

TAF EICK 072300Z 0800/0824 27022G38KT 9999 FEW012 SCT035 PROB30 TEMPO 0800/0804 -SHRA FEW018CB TEMPO 0804/0822 5000 SHRA BKN012 SCT018CB BECMG 0814/0816 27028G48KT TEMPO 0818/0820 28034G58KT BECMG 0819/0821 30028G48KT